sensor_id;sensor_type;location;lat;lon;timestamp;P1;P4;P2;P0;N10;N4;N25;N1;N05;TS
79466;SPS30;68933;49.726;9.226;2023-05-24T00:01:48;4.2;;4.2;4;;;;;;
79466;SPS30;68933;49.726;9.226;2023-05-24T00:04:01;5.2;;5.2;5;;;;;;
79466;SPS30;68933;49.726;9.226;2023-05-24T00:06:14;5.2;;5.2;5;;;;;;
79466;SPS30;68933;49.726;9.226;2023-05-24T00:08:27;4.2;;4.2;4;;;;;;
79466;SPS30;68933;49.726;9.226;2023-05-24T00:10:40;4.2;;4.2;4;;;;;;
79466;SPS30;68933;49.726;9.226;2023-05-24T00:12:53;4.2;;4.2;4;;;;;;
79466;SPS30;68933;49.726;9.226;2023-05-24T00:15:06;4.1;;4.1;3.9;;;;;;
79466;SPS30;68933;49.726;9.226;2023-05-24T00:17:19;4.1;;4.1;3.9;;;;;;
79466;SPS30;68933;49.726;9.226;2023-05-24T00:19:32;4.3;;4.3;4.1;;;;;;
79466;SPS30;68933;49.726;9.226;2023-05-24T00:21:45;4.3;;4.3;4.1;;;;;;
79466;SPS30;68933;49.726;9.226;2023-05-24T00:23:58;4.3;;4.3;4.1;;;;;;
79466;SPS30;68933;49.726;9.226;2023-05-24T00:26:11;4.3;;4.3;4.1;;;;;;
79466;SPS30;68933;49.726;9.226;2023-05-24T00:28:24;4.9;;4.9;4.7;;;;;;
79466;SPS30;68933;49.726;9.226;2023-05-24T00:30:37;4.9;;4.9;4.7;;;;;;
79466;SPS30;68933;49.726;9.226;2023-05-24T00:32:50;4.9;;4.9;4.7;;;;;;
79466;SPS30;68933;49.726;9.226;2023-05-24T00:35:03;4.6;;4.6;4.3;;;;;;
79466;SPS30;68933;49.726;9.226;2023-05-24T00:37:16;4.6;;4.6;4.3;;;;;;
79466;SPS30;68933;49.726;9.226;2023-05-24T00:39:29;4.3;;4.3;4.1;;;;;;
79466;SPS30;68933;49.726;9.226;2023-05-24T00:41:42;4.3;;4.3;4.1;;;;;;
79466;SPS30;68933;49.726;9.226;2023-05-24T00:43:55;4.4;;4.4;4.2;;;;;;
79466;SPS30;68933;49.726;9.226;2023-05-24T00:46:11;4.4;;4.4;4.2;;;;;;
79466;SPS30;68933;49.726;9.226;2023-05-24T00:48:21;4.4;;4.4;4.2;;;;;;
79466;SPS30;68933;49.726;9.226;2023-05-24T00:50:34;4.4;;4.4;4.2;;;;;;
79466;SPS30;68933;49.726;9.226;2023-05-24T00:52:47;4.4;;4.4;4.2;;;;;;
79466;SPS30;68933;49.726;9.226;2023-05-24T00:55:00;4.1;;4.1;3.9;;;;;;
79466;SPS30;68933;49.726;9.226;2023-05-24T00:57:13;4.1;;4.1;3.9;;;;;;
79466;SPS30;68933;49.726;9.226;2023-05-24T00:59:26;4.8;;4.8;4.5;;;;;;
79466;SPS30;68933;49.726;9.226;2023-05-24T01:01:39;4.8;;4.8;4.5;;;;;;
79466;SPS30;68933;49.726;9.226;2023-05-24T01:03:52;5;;5;4.7;;;;;;
79466;SPS30;68933;49.726;9.226;2023-05-24T01:06:05;5;;5;4.7;;;;;;
79466;SPS30;68933;49.726;9.226;2023-05-24T01:08:26;4.5;;4.5;4.3;;;;;;
79466;SPS30;68933;49.726;9.226;2023-05-24T01:10:32;4.5;;4.5;4.3;;;;;;
79466;SPS30;68933;49.726;9.226;2023-05-24T01:12:45;4.5;;4.5;4.3;;;;;;
79466;SPS30;68933;49.726;9.226;2023-05-24T01:15:00;4.4;;4.4;4.2;;;;;;
79466;SPS30;68933;49.726;9.226;2023-05-24T01:17:12;4.4;;4.4;4.2;;;;;;
79466;SPS30;68933;49.726;9.226;2023-05-24T01:19:31;4.2;;4.2;4;;;;;;
79466;SPS30;68933;49.726;9.226;2023-05-24T01:21:37;4.2;;4.2;4;;;;;;
79466;SPS30;68933;49.726;9.226;2023-05-24T01:23:51;5;;5;4.8;;;;;;
79466;SPS30;68933;49.726;9.226;2023-05-24T01:26:04;5;;5;4.8;;;;;;
79466;SPS30;68933;49.726;9.226;2023-05-24T01:28:15;4.6;;4.6;4.4;;;;;;
79466;SPS30;68933;49.726;9.226;2023-05-24T01:30:28;4.6;;4.6;4.4;;;;;;
79466;SPS30;68933;49.726;9.226;2023-05-24T01:32:41;4.6;;4.6;4.4;;;;;;
79466;SPS30;68933;49.726;9.226;2023-05-24T01:34:54;4.6;;4.6;4.4;;;;;;
79466;SPS30;68933;49.726;9.226;2023-05-24T01:37:07;4.6;;4.6;4.4;;;;;;
79466;SPS30;68933;49.726;9.226;2023-05-24T01:39:20;4.6;;4.6;4.4;;;;;;
79466;SPS30;68933;49.726;9.226;2023-05-24T01:41:35;4.6;;4.6;4.4;;;;;;
79466;SPS30;68933;49.726;9.226;2023-05-24T01:43:47;4.5;;4.5;4.3;;;;;;
79466;SPS30;68933;49.726;9.226;2023-05-24T01:46:01;4.5;;4.5;4.3;;;;;;
79466;SPS30;68933;49.726;9.226;2023-05-24T01:48:13;4.9;;4.9;4.7;;;;;;
79466;SPS30;68933;49.726;9.226;2023-05-24T01:50:27;4.9;;4.9;4.7;;;;;;
79466;SPS30;68933;49.726;9.226;2023-05-24T01:52:38;4.9;;4.9;4.7;;;;;;
79466;SPS30;68933;49.726;9.226;2023-05-24T01:54:51;4.7;;4.7;4.5;;;;;;
79466;SPS30;68933;49.726;9.226;2023-05-24T01:57:04;4.7;;4.7;4.5;;;;;;
79466;SPS30;68933;49.726;9.226;2023-05-24T01:59:17;5.2;;5.2;5;;;;;;
79466;SPS30;68933;49.726;9.226;2023-05-24T02:01:30;5.2;;5.2;5;;;;;;
79466;SPS30;68933;49.726;9.226;2023-05-24T02:03:43;5.2;;5.2;5;;;;;;
79466;SPS30;68933;49.726;9.226;2023-05-24T02:05:56;5.1;;5.1;4.9;;;;;;
79466;SPS30;68933;49.726;9.226;2023-05-24T02:08:09;5.1;;5.1;4.9;;;;;;
79466;SPS30;68933;49.726;9.226;2023-05-24T02:10:22;5.5;;5.5;5.2;;;;;;
79466;SPS30;68933;49.726;9.226;2023-05-24T02:12:35;5.5;;5.5;5.2;;;;;;
79466;SPS30;68933;49.726;9.226;2023-05-24T02:14:48;5.5;;5.5;5.2;;;;;;
79466;SPS30;68933;49.726;9.226;2023-05-24T02:17:01;5.1;;5.1;4.9;;;;;;
79466;SPS30;68933;49.726;9.226;2023-05-24T02:19:14;5.1;;5.1;4.9;;;;;;
79466;SPS30;68933;49.726;9.226;2023-05-24T02:21:27;5.2;;5.2;4.9;;;;;;
79466;SPS30;68933;49.726;9.226;2023-05-24T02:23:40;5.2;;5.2;4.9;;;;;;
79466;SPS30;68933;49.726;9.226;2023-05-24T02:25:53;4.8;;4.8;4.5;;;;;;
79466;SPS30;68933;49.726;9.226;2023-05-24T02:28:06;4.8;;4.8;4.5;;;;;;
79466;SPS30;68933;49.726;9.226;2023-05-24T02:30:19;4.8;;4.8;4.5;;;;;;
79466;SPS30;68933;49.726;9.226;2023-05-24T02:32:32;5.5;;5.5;5.2;;;;;;
79466;SPS30;68933;49.726;9.226;2023-05-24T02:34:45;5.5;;5.5;5.2;;;;;;
79466;SPS30;68933;49.726;9.226;2023-05-24T02:36:58;5.2;;5.2;5;;;;;;
79466;SPS30;68933;49.726;9.226;2023-05-24T02:39:11;5.2;;5.2;5;;;;;;
79466;SPS30;68933;49.726;9.226;2023-05-24T02:41:24;5.3;;5.3;5.1;;;;;;
79466;SPS30;68933;49.726;9.226;2023-05-24T02:43:37;5.3;;5.3;5.1;;;;;;
79466;SPS30;68933;49.726;9.226;2023-05-24T02:45:50;5.3;;5.3;5.1;;;;;;
79466;SPS30;68933;49.726;9.226;2023-05-24T02:48:03;5;;5;4.8;;;;;;
79466;SPS30;68933;49.726;9.226;2023-05-24T02:50:16;5;;5;4.8;;;;;;
79466;SPS30;68933;49.726;9.226;2023-05-24T02:52:29;5.4;;5.4;5.1;;;;;;
79466;SPS30;68933;49.726;9.226;2023-05-24T02:54:42;5.4;;5.4;5.1;;;;;;
79466;SPS30;68933;49.726;9.226;2023-05-24T02:56:55;5.2;;5.2;4.9;;;;;;
79466;SPS30;68933;49.726;9.226;2023-05-24T02:59:08;5.2;;5.2;4.9;;;;;;
79466;SPS30;68933;49.726;9.226;2023-05-24T03:01:21;5.2;;5.2;4.9;;;;;;
79466;SPS30;68933;49.726;9.226;2023-05-24T03:03:34;5.4;;5.4;5.1;;;;;;
79466;SPS30;68933;49.726;9.226;2023-05-24T03:05:47;5.4;;5.4;5.1;;;;;;
79466;SPS30;68933;49.726;9.226;2023-05-24T03:08:00;5.4;;5.4;5.1;;;;;;
79466;SPS30;68933;49.726;9.226;2023-05-24T03:10:13;5.4;;5.4;5.1;;;;;;
79466;SPS30;68933;49.726;9.226;2023-05-24T03:12:26;5.5;;5.5;5.2;;;;;;
79466;SPS30;68933;49.726;9.226;2023-05-24T03:14:39;5.5;;5.5;5.2;;;;;;
79466;SPS30;68933;49.726;9.226;2023-05-24T03:16:52;6;;6;5.6;;;;;;
79466;SPS30;68933;49.726;9.226;2023-05-24T03:19:05;6;;6;5.6;;;;;;
79466;SPS30;68933;49.726;9.226;2023-05-24T03:21:18;6;;6;5.6;;;;;;
79466;SPS30;68933;49.726;9.226;2023-05-24T03:23:31;5.7;;5.7;5.4;;;;;;
79466;SPS30;68933;49.726;9.226;2023-05-24T03:25:44;5.7;;5.7;5.4;;;;;;
79466;SPS30;68933;49.726;9.226;2023-05-24T03:27:57;6.5;;6.5;6.2;;;;;;
79466;SPS30;68933;49.726;9.226;2023-05-24T03:30:10;6.5;;6.5;6.2;;;;;;
79466;SPS30;68933;49.726;9.226;2023-05-24T03:32:23;5.7;;5.7;5.4;;;;;;
79466;SPS30;68933;49.726;9.226;2023-05-24T03:34:36;5.7;;5.7;5.4;;;;;;
79466;SPS30;68933;49.726;9.226;2023-05-24T03:36:49;5.7;;5.7;5.4;;;;;;
79466;SPS30;68933;49.726;9.226;2023-05-24T03:39:02;5.7;;5.7;5.4;;;;;;
79466;SPS30;68933;49.726;9.226;2023-05-24T03:41:15;5.7;;5.7;5.4;;;;;;
79466;SPS30;68933;49.726;9.226;2023-05-24T03:43:28;5.3;;5.3;5;;;;;;
79466;SPS30;68933;49.726;9.226;2023-05-24T03:45:41;5.3;;5.3;5;;;;;;
79466;SPS30;68933;49.726;9.226;2023-05-24T03:47:54;5.6;;5.6;5.4;;;;;;
79466;SPS30;68933;49.726;9.226;2023-05-24T03:50:07;5.6;;5.6;5.4;;;;;;
79466;SPS30;68933;49.726;9.226;2023-05-24T03:52:20;5.6;;5.6;5.4;;;;;;
79466;SPS30;68933;49.726;9.226;2023-05-24T03:54:33;5.3;;5.3;5;;;;;;
79466;SPS30;68933;49.726;9.226;2023-05-24T03:56:46;5.3;;5.3;5;;;;;;
79466;SPS30;68933;49.726;9.226;2023-05-24T03:58:59;5.2;;5.2;5;;;;;;
79466;SPS30;68933;49.726;9.226;2023-05-24T04:01:12;5.2;;5.2;5;;;;;;
79466;SPS30;68933;49.726;9.226;2023-05-24T04:03:25;5.4;;5.4;5.2;;;;;;
79466;SPS30;68933;49.726;9.226;2023-05-24T04:05:38;5.4;;5.4;5.2;;;;;;
79466;SPS30;68933;49.726;9.226;2023-05-24T04:07:51;5;;5;4.8;;;;;;
79466;SPS30;68933;49.726;9.226;2023-05-24T04:10:04;5;;5;4.8;;;;;;
79466;SPS30;68933;49.726;9.226;2023-05-24T04:12:17;6.1;;6.1;5.9;;;;;;
79466;SPS30;68933;49.726;9.226;2023-05-24T04:14:30;6.1;;6.1;5.9;;;;;;
79466;SPS30;68933;49.726;9.226;2023-05-24T04:16:43;6.1;;6.1;5.9;;;;;;
79466;SPS30;68933;49.726;9.226;2023-05-24T04:18:56;6.1;;6.1;5.8;;;;;;
79466;SPS30;68933;49.726;9.226;2023-05-24T04:21:09;6.1;;6.1;5.8;;;;;;
79466;SPS30;68933;49.726;9.226;2023-05-24T04:23:22;5.5;;5.5;5.2;;;;;;
79466;SPS30;68933;49.726;9.226;2023-05-24T04:25:35;5.5;;5.5;5.2;;;;;;
79466;SPS30;68933;49.726;9.226;2023-05-24T04:27:48;5.6;;5.6;5.3;;;;;;
79466;SPS30;68933;49.726;9.226;2023-05-24T04:30:01;5.6;;5.6;5.3;;;;;;
79466;SPS30;68933;49.726;9.226;2023-05-24T04:32:14;5.6;;5.6;5.4;;;;;;
79466;SPS30;68933;49.726;9.226;2023-05-24T04:34:27;5.6;;5.6;5.4;;;;;;
79466;SPS30;68933;49.726;9.226;2023-05-24T04:36:40;5;;5;4.8;;;;;;
79466;SPS30;68933;49.726;9.226;2023-05-24T04:38:53;5;;5;4.8;;;;;;
79466;SPS30;68933;49.726;9.226;2023-05-24T04:41:06;5;;5;4.8;;;;;;
79466;SPS30;68933;49.726;9.226;2023-05-24T04:43:19;6.2;;6.2;5.9;;;;;;
79466;SPS30;68933;49.726;9.226;2023-05-24T04:45:32;6.2;;6.2;5.9;;;;;;
79466;SPS30;68933;49.726;9.226;2023-05-24T04:47:45;10.2;;10.2;9.7;;;;;;
79466;SPS30;68933;49.726;9.226;2023-05-24T04:49:58;10.2;;10.2;9.7;;;;;;
79466;SPS30;68933;49.726;9.226;2023-05-24T04:52:11;5.4;;5.4;5.2;;;;;;
79466;SPS30;68933;49.726;9.226;2023-05-24T04:54:24;5.4;;5.4;5.2;;;;;;
79466;SPS30;68933;49.726;9.226;2023-05-24T04:56:37;5.4;;5.4;5.2;;;;;;
79466;SPS30;68933;49.726;9.226;2023-05-24T04:58:50;6.4;;6.4;6.1;;;;;;
79466;SPS30;68933;49.726;9.226;2023-05-24T05:01:03;6.4;;6.4;6.1;;;;;;
79466;SPS30;68933;49.726;9.226;2023-05-24T05:03:16;5.8;;5.8;5.5;;;;;;
79466;SPS30;68933;49.726;9.226;2023-05-24T05:05:29;5.8;;5.8;5.5;;;;;;
79466;SPS30;68933;49.726;9.226;2023-05-24T05:07:42;5.8;;5.8;5.5;;;;;;
79466;SPS30;68933;49.726;9.226;2023-05-24T05:09:55;5.8;;5.8;5.5;;;;;;
79466;SPS30;68933;49.726;9.226;2023-05-24T05:12:08;5.8;;5.8;5.5;;;;;;
79466;SPS30;68933;49.726;9.226;2023-05-24T05:14:21;5.6;;5.6;5.3;;;;;;
79466;SPS30;68933;49.726;9.226;2023-05-24T05:16:34;5.6;;5.6;5.3;;;;;;
79466;SPS30;68933;49.726;9.226;2023-05-24T05:18:47;6.8;;6.8;6.5;;;;;;
79466;SPS30;68933;49.726;9.226;2023-05-24T05:21:00;6.8;;6.8;6.5;;;;;;
79466;SPS30;68933;49.726;9.226;2023-05-24T05:23:13;6.8;;6.8;6.5;;;;;;
79466;SPS30;68933;49.726;9.226;2023-05-24T05:25:26;5.6;;5.6;5.4;;;;;;
79466;SPS30;68933;49.726;9.226;2023-05-24T05:27:39;5.6;;5.6;5.4;;;;;;
79466;SPS30;68933;49.726;9.226;2023-05-24T05:29:52;6.3;;6.3;6;;;;;;
79466;SPS30;68933;49.726;9.226;2023-05-24T05:32:05;6.3;;6.3;6;;;;;;
79466;SPS30;68933;49.726;9.226;2023-05-24T05:34:18;6.3;;6.3;6;;;;;;
79466;SPS30;68933;49.726;9.226;2023-05-24T05:36:31;6.5;;6.5;6.2;;;;;;
79466;SPS30;68933;49.726;9.226;2023-05-24T05:38:44;6.5;;6.5;6.2;;;;;;
79466;SPS30;68933;49.726;9.226;2023-05-24T05:40:57;9.9;;9.9;9.4;;;;;;
79466;SPS30;68933;49.726;9.226;2023-05-24T05:43:10;9.9;;9.9;9.4;;;;;;
79466;SPS30;68933;49.726;9.226;2023-05-24T05:45:23;8.5;;8.5;8.1;;;;;;
79466;SPS30;68933;49.726;9.226;2023-05-24T05:47:36;8.5;;8.5;8.1;;;;;;
79466;SPS30;68933;49.726;9.226;2023-05-24T05:49:49;8.5;;8.5;8.1;;;;;;
79466;SPS30;68933;49.726;9.226;2023-05-24T05:52:03;6;;5.9;5.6;;;;;;
79466;SPS30;68933;49.726;9.226;2023-05-24T05:54:15;6;;5.9;5.6;;;;;;
79466;SPS30;68933;49.726;9.226;2023-05-24T05:56:28;9.9;;9.9;9.4;;;;;;
79466;SPS30;68933;49.726;9.226;2023-05-24T05:58:41;9.9;;9.9;9.4;;;;;;
79466;SPS30;68933;49.726;9.226;2023-05-24T06:00:54;10;;10;9.5;;;;;;
79466;SPS30;68933;49.726;9.226;2023-05-24T06:03:07;10;;10;9.5;;;;;;
79466;SPS30;68933;49.726;9.226;2023-05-24T06:05:20;10;;10;9.5;;;;;;
79466;SPS30;68933;49.726;9.226;2023-05-24T06:07:33;10.3;;10.3;9.8;;;;;;
79466;SPS30;68933;49.726;9.226;2023-05-24T06:09:46;10.3;;10.3;9.8;;;;;;
79466;SPS30;68933;49.726;9.226;2023-05-24T06:11:59;5.9;;5.9;5.6;;;;;;
79466;SPS30;68933;49.726;9.226;2023-05-24T06:14:12;5.9;;5.9;5.6;;;;;;
79466;SPS30;68933;49.726;9.226;2023-05-24T06:16:25;5.7;;5.6;5.3;;;;;;
79466;SPS30;68933;49.726;9.226;2023-05-24T06:18:38;5.7;;5.6;5.3;;;;;;
79466;SPS30;68933;49.726;9.226;2023-05-24T06:20:51;5.7;;5.6;5.3;;;;;;
79466;SPS30;68933;49.726;9.226;2023-05-24T06:23:04;8.9;;8.9;8.4;;;;;;
79466;SPS30;68933;49.726;9.226;2023-05-24T06:25:17;8.9;;8.9;8.4;;;;;;
79466;SPS30;68933;49.726;9.226;2023-05-24T06:27:30;12;;12;9.2;;;;;;
79466;SPS30;68933;49.726;9.226;2023-05-24T06:29:43;12;;12;9.2;;;;;;
79466;SPS30;68933;49.726;9.226;2023-05-24T06:31:56;25.8;;25.7;24.4;;;;;;
79466;SPS30;68933;49.726;9.226;2023-05-24T06:34:09;25.8;;25.7;24.4;;;;;;
79466;SPS30;68933;49.726;9.226;2023-05-24T06:36:22;25.8;;25.7;24.4;;;;;;
79466;SPS30;68933;49.726;9.226;2023-05-24T06:38:35;5.7;;5.7;5.4;;;;;;
79466;SPS30;68933;49.726;9.226;2023-05-24T06:40:48;5.7;;5.7;5.4;;;;;;
79466;SPS30;68933;49.726;9.226;2023-05-24T06:43:01;5.9;;5.9;5.6;;;;;;
79466;SPS30;68933;49.726;9.226;2023-05-24T06:45:14;5.9;;5.9;5.6;;;;;;
79466;SPS30;68933;49.726;9.226;2023-05-24T06:47:27;7;;7;6.7;;;;;;
79466;SPS30;68933;49.726;9.226;2023-05-24T06:49:40;7;;7;6.7;;;;;;
79466;SPS30;68933;49.726;9.226;2023-05-24T06:51:53;8.2;;8.2;7.8;;;;;;
79466;SPS30;68933;49.726;9.226;2023-05-24T06:54:06;8.2;;8.2;7.8;;;;;;
79466;SPS30;68933;49.726;9.226;2023-05-24T06:56:19;8.2;;8.2;7.8;;;;;;
79466;SPS30;68933;49.726;9.226;2023-05-24T06:58:32;4.8;;4.7;4.4;;;;;;
79466;SPS30;68933;49.726;9.226;2023-05-24T07:00:45;4.8;;4.7;4.4;;;;;;
79466;SPS30;68933;49.726;9.226;2023-05-24T07:02:58;4.6;;4.4;4;;;;;;
79466;SPS30;68933;49.726;9.226;2023-05-24T07:05:11;4.6;;4.4;4;;;;;;
79466;SPS30;68933;49.726;9.226;2023-05-24T07:07:24;4.7;;4.5;4.1;;;;;;
79466;SPS30;68933;49.726;9.226;2023-05-24T07:09:38;4.7;;4.5;4.1;;;;;;
79466;SPS30;68933;49.726;9.226;2023-05-24T07:11:51;5.3;;5.1;4.6;;;;;;
79466;SPS30;68933;49.726;9.226;2023-05-24T07:14:03;5.3;;5.1;4.6;;;;;;
79466;SPS30;68933;49.726;9.226;2023-05-24T07:16:16;5.3;;5.1;4.6;;;;;;
79466;SPS30;68933;49.726;9.226;2023-05-24T07:18:29;5;;4.8;4.4;;;;;;
79466;SPS30;68933;49.726;9.226;2023-05-24T07:20:42;5;;4.8;4.4;;;;;;
79466;SPS30;68933;49.726;9.226;2023-05-24T07:22:55;4.9;;4.6;4.2;;;;;;
79466;SPS30;68933;49.726;9.226;2023-05-24T07:25:08;4.9;;4.6;4.2;;;;;;
79466;SPS30;68933;49.726;9.226;2023-05-24T07:27:21;4.9;;4.6;4.2;;;;;;
79466;SPS30;68933;49.726;9.226;2023-05-24T07:29:34;4.9;;4.6;4.2;;;;;;
79466;SPS30;68933;49.726;9.226;2023-05-24T07:31:47;5.1;;4.8;4.3;;;;;;
79466;SPS30;68933;49.726;9.226;2023-05-24T07:34:00;5.1;;4.8;4.3;;;;;;
79466;SPS30;68933;49.726;9.226;2023-05-24T07:36:13;4.7;;4.5;4.1;;;;;;
79466;SPS30;68933;49.726;9.226;2023-05-24T07:38:26;4.7;;4.5;4.1;;;;;;
79466;SPS30;68933;49.726;9.226;2023-05-24T07:40:39;4.7;;4.5;4.1;;;;;;
79466;SPS30;68933;49.726;9.226;2023-05-24T07:42:52;5.4;;5.2;4.7;;;;;;
79466;SPS30;68933;49.726;9.226;2023-05-24T07:45:05;5.4;;5.2;4.7;;;;;;
79466;SPS30;68933;49.726;9.226;2023-05-24T07:47:18;5;;4.8;4.3;;;;;;
79466;SPS30;68933;49.726;9.226;2023-05-24T07:49:31;5;;4.8;4.3;;;;;;
79466;SPS30;68933;49.726;9.226;2023-05-24T07:51:44;4.8;;4.5;4.1;;;;;;
79466;SPS30;68933;49.726;9.226;2023-05-24T07:53:57;4.8;;4.5;4.1;;;;;;
79466;SPS30;68933;49.726;9.226;2023-05-24T07:56:10;3.9;;3.6;3.2;;;;;;
79466;SPS30;68933;49.726;9.226;2023-05-24T07:58:23;3.9;;3.6;3.2;;;;;;
79466;SPS30;68933;49.726;9.226;2023-05-24T08:00:36;4.6;;4.3;3.8;;;;;;
79466;SPS30;68933;49.726;9.226;2023-05-24T08:02:49;4.6;;4.3;3.8;;;;;;
79466;SPS30;68933;49.726;9.226;2023-05-24T08:05:02;4.6;;4.2;3.7;;;;;;
79466;SPS30;68933;49.726;9.226;2023-05-24T08:07:15;4.6;;4.2;3.7;;;;;;
79466;SPS30;68933;49.726;9.226;2023-05-24T08:09:28;4.6;;4.2;3.7;;;;;;
79466;SPS30;68933;49.726;9.226;2023-05-24T08:11:41;4.2;;4;3.6;;;;;;
79466;SPS30;68933;49.726;9.226;2023-05-24T08:13:54;4.2;;4;3.6;;;;;;
79466;SPS30;68933;49.726;9.226;2023-05-24T08:16:07;4.9;;4.4;3.8;;;;;;
79466;SPS30;68933;49.726;9.226;2023-05-24T08:18:20;4.9;;4.4;3.8;;;;;;
79466;SPS30;68933;49.726;9.226;2023-05-24T08:20:33;4.9;;4.4;3.8;;;;;;
79466;SPS30;68933;49.726;9.226;2023-05-24T08:22:46;4.1;;3.7;3.3;;;;;;
79466;SPS30;68933;49.726;9.226;2023-05-24T08:24:59;4.1;;3.7;3.3;;;;;;
79466;SPS30;68933;49.726;9.226;2023-05-24T08:27:12;3.5;;3.2;2.8;;;;;;
79466;SPS30;68933;49.726;9.226;2023-05-24T08:29:25;3.5;;3.2;2.8;;;;;;
79466;SPS30;68933;49.726;9.226;2023-05-24T08:31:38;3.5;;3.2;2.8;;;;;;
79466;SPS30;68933;49.726;9.226;2023-05-24T08:33:51;3.2;;2.9;2.6;;;;;;
79466;SPS30;68933;49.726;9.226;2023-05-24T08:36:04;3.2;;2.9;2.6;;;;;;
79466;SPS30;68933;49.726;9.226;2023-05-24T08:38:17;3.7;;3.3;2.9;;;;;;
79466;SPS30;68933;49.726;9.226;2023-05-24T08:40:30;3.7;;3.3;2.9;;;;;;
79466;SPS30;68933;49.726;9.226;2023-05-24T08:42:43;4.8;;4.4;3.8;;;;;;
79466;SPS30;68933;49.726;9.226;2023-05-24T08:44:57;4.4;;4;3.5;;;;;;
79466;SPS30;68933;49.726;9.226;2023-05-24T08:47:09;4.4;;4;3.5;;;;;;
79466;SPS30;68933;49.726;9.226;2023-05-24T08:49:22;3.4;;3.1;2.7;;;;;;
79466;SPS30;68933;49.726;9.226;2023-05-24T08:51:35;3.4;;3.1;2.7;;;;;;
79466;SPS30;68933;49.726;9.226;2023-05-24T08:53:48;3.4;;3.1;2.7;;;;;;
79466;SPS30;68933;49.726;9.226;2023-05-24T08:56:01;3.9;;3.6;3.2;;;;;;
79466;SPS30;68933;49.726;9.226;2023-05-24T08:58:14;3.9;;3.6;3.2;;;;;;
79466;SPS30;68933;49.726;9.226;2023-05-24T09:00:27;4;;3.7;3.3;;;;;;
79466;SPS30;68933;49.726;9.226;2023-05-24T09:02:40;4;;3.7;3.3;;;;;;
79466;SPS30;68933;49.726;9.226;2023-05-24T09:04:53;4.8;;4.3;3.8;;;;;;
79466;SPS30;68933;49.726;9.226;2023-05-24T09:07:06;4.8;;4.3;3.8;;;;;;
79466;SPS30;68933;49.726;9.226;2023-05-24T09:09:19;4.8;;4.3;3.8;;;;;;
79466;SPS30;68933;49.726;9.226;2023-05-24T09:11:32;3.8;;3.4;3;;;;;;
79466;SPS30;68933;49.726;9.226;2023-05-24T09:13:45;3.8;;3.4;3;;;;;;
79466;SPS30;68933;49.726;9.226;2023-05-24T09:15:58;3.5;;3.3;2.9;;;;;;
79466;SPS30;68933;49.726;9.226;2023-05-24T09:18:11;3.5;;3.3;2.9;;;;;;
79466;SPS30;68933;49.726;9.226;2023-05-24T09:20:24;3.8;;3.5;3.1;;;;;;
79466;SPS30;68933;49.726;9.226;2023-05-24T09:22:37;3.8;;3.5;3.1;;;;;;
79466;SPS30;68933;49.726;9.226;2023-05-24T09:24:50;3.8;;3.5;3.1;;;;;;
79466;SPS30;68933;49.726;9.226;2023-05-24T09:27:03;3.6;;3.3;2.9;;;;;;
79466;SPS30;68933;49.726;9.226;2023-05-24T09:29:16;3.6;;3.3;2.9;;;;;;
79466;SPS30;68933;49.726;9.226;2023-05-24T09:31:32;4.1;;3.6;3;;;;;;
79466;SPS30;68933;49.726;9.226;2023-05-24T09:33:42;4.1;;3.6;3;;;;;;
79466;SPS30;68933;49.726;9.226;2023-05-24T09:35:56;4.4;;3.9;3.2;;;;;;
79466;SPS30;68933;49.726;9.226;2023-05-24T09:38:14;4.4;;3.9;3.2;;;;;;
79466;SPS30;68933;49.726;9.226;2023-05-24T09:40:21;3.9;;3.6;3.2;;;;;;
79466;SPS30;68933;49.726;9.226;2023-05-24T09:42:34;3.9;;3.6;3.2;;;;;;
79466;SPS30;68933;49.726;9.226;2023-05-24T09:44:47;3.9;;3.6;3.2;;;;;;
79466;SPS30;68933;49.726;9.226;2023-05-24T09:47:00;4.5;;3.9;3.2;;;;;;
79466;SPS30;68933;49.726;9.226;2023-05-24T09:49:13;4.5;;3.9;3.2;;;;;;
79466;SPS30;68933;49.726;9.226;2023-05-24T09:51:26;5.5;;4.9;4.2;;;;;;
79466;SPS30;68933;49.726;9.226;2023-05-24T09:53:40;5.5;;4.9;4.2;;;;;;
79466;SPS30;68933;49.726;9.226;2023-05-24T09:55:52;4.1;;3.7;3.3;;;;;;
79466;SPS30;68933;49.726;9.226;2023-05-24T09:58:05;4.1;;3.7;3.3;;;;;;
79466;SPS30;68933;49.726;9.226;2023-05-24T10:00:20;4.1;;3.7;3.3;;;;;;
79466;SPS30;68933;49.726;9.226;2023-05-24T10:02:31;4.1;;3.7;3.2;;;;;;
79466;SPS30;68933;49.726;9.226;2023-05-24T10:04:44;4.1;;3.7;3.2;;;;;;
79466;SPS30;68933;49.726;9.226;2023-05-24T10:06:57;4.8;;4.3;3.8;;;;;;
79466;SPS30;68933;49.726;9.226;2023-05-24T10:09:10;4.8;;4.3;3.8;;;;;;
79466;SPS30;68933;49.726;9.226;2023-05-24T10:11:23;5.2;;4.5;3.8;;;;;;
79466;SPS30;68933;49.726;9.226;2023-05-24T10:13:36;5.2;;4.5;3.8;;;;;;
79466;SPS30;68933;49.726;9.226;2023-05-24T10:15:49;4.9;;4.4;3.7;;;;;;
79466;SPS30;68933;49.726;9.226;2023-05-24T10:18:02;4.9;;4.4;3.7;;;;;;
79466;SPS30;68933;49.726;9.226;2023-05-24T10:20:15;5.2;;4.7;4.1;;;;;;
79466;SPS30;68933;49.726;9.226;2023-05-24T10:22:28;5.2;;4.7;4.1;;;;;;
79466;SPS30;68933;49.726;9.226;2023-05-24T10:24:43;4.6;;4.2;3.6;;;;;;
79466;SPS30;68933;49.726;9.226;2023-05-24T10:26:54;4.6;;4.2;3.6;;;;;;
79466;SPS30;68933;49.726;9.226;2023-05-24T10:29:08;4.6;;4.2;3.6;;;;;;
79466;SPS30;68933;49.726;9.226;2023-05-24T10:31:21;4.4;;4;3.5;;;;;;
79466;SPS30;68933;49.726;9.226;2023-05-24T10:33:33;4.4;;4;3.5;;;;;;
79466;SPS30;68933;49.726;9.226;2023-05-24T10:35:46;4.6;;4.2;3.8;;;;;;
79466;SPS30;68933;49.726;9.226;2023-05-24T10:37:59;4.6;;4.2;3.8;;;;;;
79466;SPS30;68933;49.726;9.226;2023-05-24T10:40:15;5.3;;4.8;4.1;;;;;;
79466;SPS30;68933;49.726;9.226;2023-05-24T10:42:25;5.3;;4.8;4.1;;;;;;
79466;SPS30;68933;49.726;9.226;2023-05-24T10:44:38;4.7;;4.2;3.7;;;;;;
79466;SPS30;68933;49.726;9.226;2023-05-24T10:47:07;4.7;;4.2;3.7;;;;;;
79466;SPS30;68933;49.726;9.226;2023-05-24T10:49:04;4.7;;4.2;3.7;;;;;;
79466;SPS30;68933;49.726;9.226;2023-05-24T10:51:33;4.4;;4.1;3.6;;;;;;
79466;SPS30;68933;49.726;9.226;2023-05-24T10:53:30;4.4;;4.1;3.6;;;;;;
79466;SPS30;68933;49.726;9.226;2023-05-24T10:55:50;4.6;;4.2;3.7;;;;;;
79466;SPS30;68933;49.726;9.226;2023-05-24T10:57:56;4.6;;4.2;3.7;;;;;;
79466;SPS30;68933;49.726;9.226;2023-05-24T11:00:25;4.6;;4.2;3.7;;;;;;
79466;SPS30;68933;49.726;9.226;2023-05-24T11:02:22;4.6;;4.2;3.7;;;;;;
79466;SPS30;68933;49.726;9.226;2023-05-24T11:04:36;4.6;;4.2;3.7;;;;;;
79466;SPS30;68933;49.726;9.226;2023-05-24T11:06:48;4.8;;4.4;3.9;;;;;;
79466;SPS30;68933;49.726;9.226;2023-05-24T11:09:01;4.8;;4.4;3.9;;;;;;
79466;SPS30;68933;49.726;9.226;2023-05-24T11:11:14;5.9;;5.3;4.6;;;;;;
79466;SPS30;68933;49.726;9.226;2023-05-24T11:13:27;5.9;;5.3;4.6;;;;;;
79466;SPS30;68933;49.726;9.226;2023-05-24T11:15:47;5.9;;5.3;4.6;;;;;;
79466;SPS30;68933;49.726;9.226;2023-05-24T11:18:22;3.9;;3.6;3.2;;;;;;
79466;SPS30;68933;49.726;9.226;2023-05-24T11:20:06;3.9;;3.6;3.2;;;;;;
79466;SPS30;68933;49.726;9.226;2023-05-24T11:22:19;4.7;;4.3;3.7;;;;;;
79466;SPS30;68933;49.726;9.226;2023-05-24T11:24:32;4.7;;4.3;3.7;;;;;;
79466;SPS30;68933;49.726;9.226;2023-05-24T11:26:45;3.7;;3.3;2.9;;;;;;
79466;SPS30;68933;49.726;9.226;2023-05-24T11:28:58;3.7;;3.3;2.9;;;;;;
79466;SPS30;68933;49.726;9.226;2023-05-24T11:31:11;3.7;;3.3;2.9;;;;;;
79466;SPS30;68933;49.726;9.226;2023-05-24T11:33:24;4;;3.7;3.3;;;;;;
79466;SPS30;68933;49.726;9.226;2023-05-24T11:35:37;4;;3.7;3.3;;;;;;
79466;SPS30;68933;49.726;9.226;2023-05-24T11:37:50;4.2;;3.7;3.2;;;;;;
79466;SPS30;68933;49.726;9.226;2023-05-24T11:40:03;4.2;;3.7;3.2;;;;;;
79466;SPS30;68933;49.726;9.226;2023-05-24T11:42:16;4.1;;3.6;3.1;;;;;;
79466;SPS30;68933;49.726;9.226;2023-05-24T11:44:30;4.1;;3.6;3.1;;;;;;
79466;SPS30;68933;49.726;9.226;2023-05-24T11:46:42;4.1;;3.6;3.1;;;;;;
79466;SPS30;68933;49.726;9.226;2023-05-24T11:48:55;4;;3.8;3.4;;;;;;
79466;SPS30;68933;49.726;9.226;2023-05-24T11:51:08;4;;3.8;3.4;;;;;;
79466;SPS30;68933;49.726;9.226;2023-05-24T11:53:21;4;;3.9;3.5;;;;;;
79466;SPS30;68933;49.726;9.226;2023-05-24T11:55:34;4;;3.9;3.5;;;;;;
79466;SPS30;68933;49.726;9.226;2023-05-24T11:57:48;4;;3.7;3.4;;;;;;
79466;SPS30;68933;49.726;9.226;2023-05-24T12:00:00;4;;3.7;3.4;;;;;;
79466;SPS30;68933;49.726;9.226;2023-05-24T12:02:13;3.8;;3.6;3.2;;;;;;
79466;SPS30;68933;49.726;9.226;2023-05-24T12:04:26;3.8;;3.6;3.2;;;;;;
79466;SPS30;68933;49.726;9.226;2023-05-24T12:06:39;4.1;;4;3.8;;;;;;
79466;SPS30;68933;49.726;9.226;2023-05-24T12:08:52;4.1;;4;3.8;;;;;;
79466;SPS30;68933;49.726;9.226;2023-05-24T12:11:05;4.1;;4;3.8;;;;;;
79466;SPS30;68933;49.726;9.226;2023-05-24T12:13:19;4;;3.7;3.4;;;;;;
79466;SPS30;68933;49.726;9.226;2023-05-24T12:15:31;4;;3.7;3.4;;;;;;
79466;SPS30;68933;49.726;9.226;2023-05-24T12:17:46;4.5;;4.2;3.7;;;;;;
79466;SPS30;68933;49.726;9.226;2023-05-24T12:19:57;4.5;;4.2;3.7;;;;;;
79466;SPS30;68933;49.726;9.226;2023-05-24T12:22:10;3.6;;3.5;3.2;;;;;;
79466;SPS30;68933;49.726;9.226;2023-05-24T12:24:23;3.6;;3.5;3.2;;;;;;
79466;SPS30;68933;49.726;9.226;2023-05-24T12:26:36;3.6;;3.5;3.2;;;;;;
79466;SPS30;68933;49.726;9.226;2023-05-24T12:28:51;3.5;;3.3;3.1;;;;;;
79466;SPS30;68933;49.726;9.226;2023-05-24T12:31:02;3.5;;3.3;3.1;;;;;;
79466;SPS30;68933;49.726;9.226;2023-05-24T12:33:16;3.8;;3.6;3.3;;;;;;
79466;SPS30;68933;49.726;9.226;2023-05-24T12:35:28;3.8;;3.6;3.3;;;;;;
79466;SPS30;68933;49.726;9.226;2023-05-24T12:37:41;4;;3.8;3.5;;;;;;
79466;SPS30;68933;49.726;9.226;2023-05-24T12:39:54;4;;3.8;3.5;;;;;;
79466;SPS30;68933;49.726;9.226;2023-05-24T12:42:07;3.8;;3.6;3.3;;;;;;